Time;durP1;ratioP1;P1;durP2;ratioP2;P2;SDS_P1;SDS_P2;PMS_P1;PMS_P2;Temp;Humidity;BMP_temperature;BMP_pressure;BME280_temperature;BME280_humidity;BME280_pressure;Samples;Min_cycle;Max_cycle;Signal;HPM_P1;HPM_P2
2022/10/06 00:01:08;;;;;;;8.88;7.43;;;;;;;;;;4936974;28;20122;-54
2022/10/06 00:03:34;;;;;;;8.68;7.13;;;;;;;;;;4938789;28;20027;-51
2022/10/06 00:05:59;;;;;;;10.45;7.30;;;;;;;;;;4934786;28;20475;-54
2022/10/06 00:08:25;;;;;;;10.55;7.07;;;;;;;;;;4934465;28;20034;-54
2022/10/06 00:10:53;;;;;;;7.57;6.88;;;;;;;;;;4936837;28;20040;-55
2022/10/06 00:13:19;;;;;;;9.32;7.00;;;;;;;;;;4935648;28;20623;-55
2022/10/06 00:15:44;;;;;;;11.80;7.55;;;;;;;;;;4936055;28;20027;-54
2022/10/06 00:18:09;;;;;;;8.00;6.70;;;;;;;;;;4937066;28;20131;-57
2022/10/06 00:20:34;;;;;;;7.45;6.65;;;;;;;;;;4936947;28;20056;-55
2022/10/06 00:23:00;;;;;;;9.38;7.70;;;;;;;;;;4937485;28;20059;-54
2022/10/06 00:25:27;;;;;;;7.22;6.45;;;;;;;;;;4938428;28;20038;-56
2022/10/06 00:27:52;;;;;;;10.30;6.63;;;;;;;;;;4937711;28;20119;-55
2022/10/06 00:30:22;;;;;;;11.18;6.75;;;;;;;;;;4937627;28;20024;-53
2022/10/06 00:32:52;;;;;;;7.35;6.47;;;;;;;;;;4936193;28;20019;-57
2022/10/06 00:35:17;;;;;;;7.00;6.30;;;;;;;;;;4936506;28;20031;-56
2022/10/06 00:37:42;;;;;;;9.95;7.53;;;;;;;;;;4936647;28;20550;-54
2022/10/06 00:40:08;;;;;;;8.80;7.22;;;;;;;;;;4936923;28;20036;-54
2022/10/06 00:42:47;;;;;;;7.95;6.20;;;;;;;;;;4936350;28;20027;-54
2022/10/06 00:45:12;;;;;;;10.55;6.78;;;;;;;;;;4936639;28;20071;-54
2022/10/06 00:47:37;;;;;;;8.15;6.10;;;;;;;;;;4937902;28;20059;-54
2022/10/06 00:50:03;;;;;;;8.23;7.22;;;;;;;;;;4936506;28;20075;-56
2022/10/06 00:52:29;;;;;;;8.55;6.82;;;;;;;;;;4933760;28;20389;-56
2022/10/06 00:54:57;;;;;;;9.65;7.38;;;;;;;;;;4933545;28;20032;-57
2022/10/06 00:57:22;;;;;;;7.63;6.40;;;;;;;;;;4935335;28;20042;-57
2022/10/06 00:59:47;;;;;;;7.88;6.03;;;;;;;;;;4936255;28;20035;-54
2022/10/06 01:02:18;;;;;;;7.50;6.25;;;;;;;;;;4936340;28;20529;-53
2022/10/06 01:04:45;;;;;;;7.63;6.82;;;;;;;;;;4935946;28;20024;-54
2022/10/06 01:07:11;;;;;;;7.93;6.47;;;;;;;;;;4938956;28;20031;-56
2022/10/06 01:09:37;;;;;;;8.05;6.47;;;;;;;;;;4934909;28;20502;-53
2022/10/06 01:12:03;;;;;;;7.28;6.57;;;;;;;;;;4935858;28;20039;-55
2022/10/06 01:14:29;;;;;;;6.68;5.78;;;;;;;;;;4936093;28;20136;-55
2022/10/06 01:17:00;;;;;;;9.90;6.88;;;;;;;;;;4935771;28;20118;-54
2022/10/06 01:19:47;;;;;;;8.63;6.63;;;;;;;;;;4936016;28;20478;-55
2022/10/06 01:22:14;;;;;;;7.60;6.03;;;;;;;;;;4936476;28;20028;-54
2022/10/06 01:24:39;;;;;;;8.93;6.78;;;;;;;;;;4935147;28;20028;-54
2022/10/06 01:27:06;;;;;;;8.13;6.47;;;;;;;;;;4933179;28;20038;-55
2022/10/06 01:29:32;;;;;;;10.13;6.65;;;;;;;;;;4934136;28;20752;-54
2022/10/06 01:31:58;;;;;;;9.65;6.95;;;;;;;;;;4935429;28;20050;-54
2022/10/06 01:34:23;;;;;;;7.80;6.90;;;;;;;;;;4935223;28;20632;-54
2022/10/06 01:36:51;;;;;;;7.15;6.45;;;;;;;;;;4934329;28;20027;-53
2022/10/06 01:39:16;;;;;;;9.60;6.38;;;;;;;;;;4933844;28;20494;-55
2022/10/06 01:41:42;;;;;;;8.13;7.32;;;;;;;;;;4935569;28;20035;-54
2022/10/06 01:44:07;;;;;;;7.63;6.13;;;;;;;;;;4934712;28;20036;-54
2022/10/06 01:46:34;;;;;;;6.75;6.05;;;;;;;;;;4935742;28;20027;-54
2022/10/06 01:49:03;;;;;;;6.80;5.95;;;;;;;;;;4918762;28;20372;-56
2022/10/06 01:51:28;;;;;;;7.90;7.07;;;;;;;;;;4936277;28;20379;-53
2022/10/06 01:53:53;;;;;;;8.35;6.97;;;;;;;;;;4933552;28;20627;-55
2022/10/06 01:56:19;;;;;;;9.80;6.22;;;;;;;;;;4935539;28;20027;-55
2022/10/06 01:59:08;;;;;;;7.57;6.10;;;;;;;;;;4934247;28;20031;-57
2022/10/06 02:01:36;;;;;;;6.47;5.45;;;;;;;;;;4935482;28;20113;-56
2022/10/06 02:04:13;;;;;;;10.77;7.03;;;;;;;;;;4934900;28;20110;-55
2022/10/06 02:13:13;;;;;;;10.05;7.50;;;;;;;;;;4856291;29;20045;-52
2022/10/06 02:16:02;;;;;;;11.15;6.50;;;;;;;;;;4854859;29;20155;-54
2022/10/06 02:18:28;;;;;;;8.35;7.05;;;;;;;;;;4855749;29;20058;-52
2022/10/06 02:21:16;;;;;;;9.85;7.75;;;;;;;;;;4853969;29;20137;-55
2022/10/06 02:23:53;;;;;;;10.93;7.63;;;;;;;;;;4855391;29;20169;-54
2022/10/06 02:26:19;;;;;;;9.80;7.07;;;;;;;;;;4855518;29;20056;-55
2022/10/06 02:28:45;;;;;;;10.40;7.47;;;;;;;;;;4857281;29;20548;-53
2022/10/06 02:31:15;;;;;;;9.73;7.00;;;;;;;;;;4856698;29;20112;-61
2022/10/06 02:33:40;;;;;;;6.57;5.88;;;;;;;;;;4855477;29;20084;-55
2022/10/06 02:36:06;;;;;;;9.45;7.10;;;;;;;;;;4857402;29;20487;-54
2022/10/06 02:38:34;;;;;;;6.82;5.80;;;;;;;;;;4857261;29;20866;-56
2022/10/06 02:41:02;;;;;;;7.43;6.03;;;;;;;;;;4856251;29;20053;-54
2022/10/06 02:43:28;;;;;;;8.75;6.13;;;;;;;;;;4856859;29;20044;-54
2022/10/06 02:46:13;;;;;;;9.10;6.30;;;;;;;;;;4863808;28;20136;-54
2022/10/06 02:48:42;;;;;;;7.75;5.80;;;;;;;;;;4935998;28;20462;-54
2022/10/06 02:51:10;;;;;;;6.70;5.85;;;;;;;;;;4934690;28;20058;-54
2022/10/06 02:53:36;;;;;;;5.93;5.33;;;;;;;;;;4935148;28;20024;-54
2022/10/06 02:56:03;;;;;;;7.18;5.35;;;;;;;;;;4933760;28;20031;-56
2022/10/06 02:58:28;;;;;;;5.68;5.10;;;;;;;;;;4934351;28;20086;-55
2022/10/06 03:00:54;;;;;;;6.95;5.53;;;;;;;;;;4931809;28;20051;-56
2022/10/06 03:03:20;;;;;;;6.90;5.47;;;;;;;;;;4931472;28;20027;-55
2022/10/06 03:05:45;;;;;;;7.28;6.10;;;;;;;;;;4933115;28;20046;-55
2022/10/06 03:08:10;;;;;;;5.45;4.93;;;;;;;;;;4933810;28;20198;-56
2022/10/06 03:10:35;;;;;;;6.03;5.43;;;;;;;;;;4931750;28;20114;-57
2022/10/06 03:13:00;;;;;;;6.13;4.93;;;;;;;;;;4933441;28;20118;-57
2022/10/06 03:15:26;;;;;;;7.20;4.90;;;;;;;;;;4924969;29;20114;-56
2022/10/06 03:17:51;;;;;;;6.03;4.93;;;;;;;;;;4934788;28;20043;-56
2022/10/06 03:20:17;;;;;;;7.22;5.85;;;;;;;;;;4934714;28;20036;-55
2022/10/06 03:22:42;;;;;;;6.20;5.47;;;;;;;;;;4933403;28;20028;-56
2022/10/06 03:25:08;;;;;;;10.25;6.43;;;;;;;;;;4935247;28;20471;-55
2022/10/06 03:27:34;;;;;;;7.65;6.07;;;;;;;;;;4933371;28;20069;-55
2022/10/06 03:29:59;;;;;;;8.27;6.35;;;;;;;;;;4936145;28;20118;-55
2022/10/06 03:32:24;;;;;;;6.77;6.00;;;;;;;;;;4936361;28;20031;-56
2022/10/06 03:34:52;;;;;;;9.43;5.73;;;;;;;;;;4937889;28;20027;-55
2022/10/06 03:37:17;;;;;;;8.70;6.03;;;;;;;;;;4937833;28;20031;-56
2022/10/06 03:39:43;;;;;;;7.30;5.72;;;;;;;;;;4937885;28;20031;-56
2022/10/06 03:42:08;;;;;;;6.70;6.00;;;;;;;;;;4936073;28;20027;-54
2022/10/06 03:44:33;;;;;;;6.95;5.68;;;;;;;;;;4928214;29;20506;-57
2022/10/06 03:46:59;;;;;;;9.20;6.30;;;;;;;;;;4936796;28;20028;-56
2022/10/06 03:49:24;;;;;;;6.85;6.15;;;;;;;;;;4921910;28;20059;-54
2022/10/06 03:51:49;;;;;;;6.45;5.85;;;;;;;;;;4935831;28;20042;-54
2022/10/06 03:54:14;;;;;;;7.63;5.95;;;;;;;;;;4936844;28;20031;-56
2022/10/06 03:56:40;;;;;;;6.68;6.05;;;;;;;;;;4937920;28;20104;-55
2022/10/06 03:59:06;;;;;;;7.47;6.45;;;;;;;;;;4938591;28;20131;-52
2022/10/06 04:01:36;;;;;;;7.03;6.18;;;;;;;;;;4938486;28;20074;-56
2022/10/06 04:04:02;;;;;;;7.57;6.87;;;;;;;;;;4938395;28;20031;-53
2022/10/06 04:06:28;;;;;;;7.10;6.20;;;;;;;;;;4936355;28;20034;-55
2022/10/06 04:08:54;;;;;;;8.87;6.50;;;;;;;;;;4936476;28;20039;-54
2022/10/06 04:11:20;;;;;;;7.10;6.23;;;;;;;;;;4937851;28;20039;-54
2022/10/06 04:13:45;;;;;;;7.67;6.53;;;;;;;;;;4936840;28;20038;-55
2022/10/06 04:16:21;;;;;;;9.13;7.00;;;;;;;;;;4936572;28;20070;-56
2022/10/06 04:18:50;;;;;;;11.03;9.27;;;;;;;;;;4936632;28;20737;-52
2022/10/06 04:21:15;;;;;;;12.87;10.70;;;;;;;;;;4937978;28;20040;-55
2022/10/06 04:23:41;;;;;;;14.00;11.03;;;;;;;;;;4935322;28;20031;-55
2022/10/06 04:26:08;;;;;;;28.37;24.27;;;;;;;;;;4937524;28;20032;-54
2022/10/06 04:28:35;;;;;;;21.07;18.87;;;;;;;;;;4939364;28;20038;-54
2022/10/06 04:31:00;;;;;;;20.17;17.37;;;;;;;;;;4938349;28;20035;-55
2022/10/06 04:33:26;;;;;;;14.77;11.07;;;;;;;;;;4935494;28;20524;-54
2022/10/06 04:35:58;;;;;;;13.00;11.63;;;;;;;;;;4938635;28;20030;-55
2022/10/06 04:38:24;;;;;;;11.17;7.80;;;;;;;;;;4936107;28;20130;-54
2022/10/06 04:40:49;;;;;;;9.43;8.03;;;;;;;;;;4936782;28;20434;-54
2022/10/06 04:43:14;;;;;;;12.00;7.87;;;;;;;;;;4935287;28;20031;-53
2022/10/06 04:45:39;;;;;;;8.43;6.27;;;;;;;;;;4938086;28;20641;-55
2022/10/06 04:48:05;;;;;;;7.63;6.20;;;;;;;;;;4924489;28;20043;-53
2022/10/06 04:50:30;;;;;;;12.13;6.67;;;;;;;;;;4933779;28;20063;-54
2022/10/06 04:52:55;;;;;;;11.13;6.33;;;;;;;;;;4935791;28;20035;-55
2022/10/06 04:55:21;;;;;;;9.23;6.20;;;;;;;;;;4935758;28;20039;-54
2022/10/06 04:57:46;;;;;;;9.67;6.27;;;;;;;;;;4935405;28;20028;-56
2022/10/06 05:00:24;;;;;;;10.13;6.50;;;;;;;;;;4936063;28;20036;-55
2022/10/06 05:02:51;;;;;;;7.80;5.77;;;;;;;;;;4936589;28;20666;-55
2022/10/06 05:05:17;;;;;;;13.90;6.73;;;;;;;;;;4930129;28;20115;-55
2022/10/06 05:07:43;;;;;;;7.17;5.23;;;;;;;;;;4934507;28;20040;-55
2022/10/06 05:10:09;;;;;;;7.85;5.68;;;;;;;;;;4933066;28;20537;-60
2022/10/06 05:12:34;;;;;;;9.17;6.13;;;;;;;;;;4933205;28;20035;-57
2022/10/06 05:14:59;;;;;;;9.37;6.13;;;;;;;;;;4934970;28;20893;-58
2022/10/06 05:17:25;;;;;;;7.10;5.53;;;;;;;;;;4922627;28;20092;-57
2022/10/06 05:19:50;;;;;;;7.13;5.20;;;;;;;;;;4910462;28;20046;-56
2022/10/06 05:22:15;;;;;;;8.52;5.50;;;;;;;;;;4934127;28;20035;-57
2022/10/06 05:24:40;;;;;;;7.05;5.80;;;;;;;;;;4932590;28;20068;-57
2022/10/06 05:27:06;;;;;;;5.13;4.63;;;;;;;;;;4932020;28;20035;-57
2022/10/06 05:29:32;;;;;;;7.72;5.07;;;;;;;;;;4933506;28;20028;-56
2022/10/06 05:31:58;;;;;;;6.57;4.88;;;;;;;;;;4933268;28;20027;-58
2022/10/06 05:34:23;;;;;;;5.25;4.75;;;;;;;;;;4934212;28;20024;-58
2022/10/06 05:36:48;;;;;;;7.15;5.43;;;;;;;;;;4934159;28;20035;-58
2022/10/06 05:39:13;;;;;;;8.65;5.32;;;;;;;;;;4935525;28;20047;-59
2022/10/06 05:41:39;;;;;;;7.22;5.10;;;;;;;;;;4934661;28;20086;-60
2022/10/06 05:44:04;;;;;;;5.78;5.18;;;;;;;;;;4933126;28;20036;-59
2022/10/06 05:46:31;;;;;;;6.30;5.28;;;;;;;;;;4935168;28;20043;-59
2022/10/06 05:49:00;;;;;;;7.95;6.32;;;;;;;;;;4936682;28;20059;-58
2022/10/06 05:51:27;;;;;;;11.57;6.65;;;;;;;;;;4935787;28;20059;-60
2022/10/06 05:53:52;;;;;;;9.00;6.32;;;;;;;;;;4932940;28;20023;-59
2022/10/06 05:56:18;;;;;;;9.70;6.70;;;;;;;;;;4935051;28;20032;-58
2022/10/06 05:58:45;;;;;;;8.38;7.53;;;;;;;;;;4935304;28;20066;-58
2022/10/06 06:01:14;;;;;;;11.02;7.68;;;;;;;;;;4935761;28;20092;-58
2022/10/06 06:03:41;;;;;;;13.88;8.57;;;;;;;;;;4926059;28;20032;-57
2022/10/06 06:06:16;;;;;;;11.43;8.10;;;;;;;;;;4931743;28;20031;-57
2022/10/06 06:08:42;;;;;;;9.57;7.78;;;;;;;;;;4932016;28;20085;-59
2022/10/06 06:11:08;;;;;;;10.82;6.10;;;;;;;;;;4935144;28;20031;-57
2022/10/06 06:13:34;;;;;;;7.70;5.18;;;;;;;;;;4933936;28;20063;-59
2022/10/06 06:15:59;;;;;;;3.47;2.63;;;;;;;;;;4925480;28;20138;-58
2022/10/06 06:18:25;;;;;;;3.22;2.28;;;;;;;;;;4931541;28;20442;-57
2022/10/06 06:20:54;;;;;;;3.15;2.15;;;;;;;;;;4931459;28;20043;-55
2022/10/06 06:23:19;;;;;;;3.58;2.00;;;;;;;;;;4932164;28;20479;-56
2022/10/06 06:25:54;;;;;;;4.93;2.33;;;;;;;;;;4932435;28;20083;-58
2022/10/06 06:28:19;;;;;;;2.45;2.25;;;;;;;;;;4931944;28;20031;-58
2022/10/06 06:30:46;;;;;;;1.90;1.80;;;;;;;;;;4933521;28;20645;-57
2022/10/06 06:33:12;;;;;;;2.60;2.40;;;;;;;;;;4930596;28;20050;-58
2022/10/06 06:35:37;;;;;;;3.90;2.35;;;;;;;;;;4931225;28;20589;-58
2022/10/06 06:38:02;;;;;;;3.83;2.60;;;;;;;;;;4930576;28;20031;-59
2022/10/06 06:40:27;;;;;;;4.22;2.45;;;;;;;;;;4931292;28;20489;-58
2022/10/06 06:42:53;;;;;;;3.03;2.55;;;;;;;;;;4932438;28;20920;-59
2022/10/06 06:45:20;;;;;;;4.93;2.65;;;;;;;;;;4932874;28;20028;-59
2022/10/06 06:47:46;;;;;;;4.63;3.03;;;;;;;;;;4932631;28;20055;-59
2022/10/06 06:50:12;;;;;;;2.50;2.30;;;;;;;;;;4930357;28;20103;-59
2022/10/06 06:52:38;;;;;;;5.63;3.45;;;;;;;;;;4920277;28;20039;-59
2022/10/06 06:55:03;;;;;;;3.70;2.78;;;;;;;;;;4930856;28;20024;-59
2022/10/06 06:57:28;;;;;;;2.75;2.47;;;;;;;;;;4933625;28;20038;-59
2022/10/06 06:59:54;;;;;;;2.47;2.28;;;;;;;;;;4933092;28;20043;-59
2022/10/06 07:02:27;;;;;;;3.05;2.55;;;;;;;;;;4931839;28;20903;-60
2022/10/06 07:04:52;;;;;;;2.30;1.83;;;;;;;;;;4934741;28;20794;-59
2022/10/06 07:07:19;;;;;;;2.58;2.35;;;;;;;;;;4934725;28;20090;-59
2022/10/06 07:09:45;;;;;;;2.92;1.92;;;;;;;;;;4934737;28;20909;-59
2022/10/06 07:12:10;;;;;;;4.25;2.38;;;;;;;;;;4935443;28;20138;-59
2022/10/06 07:14:35;;;;;;;2.47;2.28;;;;;;;;;;4935493;28;20031;-59
2022/10/06 07:25:19;;;;;;;3.65;1.88;;;;;;;;;;4935097;28;20074;-59
2022/10/06 07:27:46;;;;;;;2.08;1.77;;;;;;;;;;4933536;28;20039;-59
2022/10/06 07:30:17;;;;;;;2.08;1.75;;;;;;;;;;4923449;28;20042;-59
2022/10/06 07:32:44;;;;;;;2.00;1.65;;;;;;;;;;4934890;28;20031;-60
2022/10/06 07:35:09;;;;;;;2.13;1.70;;;;;;;;;;4936409;28;20035;-59
2022/10/06 07:37:35;;;;;;;2.28;1.88;;;;;;;;;;4935395;28;20051;-59
2022/10/06 07:40:01;;;;;;;3.92;2.28;;;;;;;;;;4936499;28;20041;-59
2022/10/06 07:42:26;;;;;;;2.22;2.00;;;;;;;;;;4933227;28;20027;-59
2022/10/06 07:47:38;;;;;;;2.08;1.83;;;;;;;;;;4936758;28;20035;-59
2022/10/06 07:50:07;;;;;;;2.17;1.75;;;;;;;;;;4936657;28;20150;-59
2022/10/06 07:52:35;;;;;;;2.80;2.20;;;;;;;;;;4938138;28;20024;-60
2022/10/06 07:55:01;;;;;;;2.00;1.90;;;;;;;;;;4935189;28;20039;-60
2022/10/06 07:57:31;;;;;;;1.77;1.60;;;;;;;;;;4934231;28;20042;-59
2022/10/06 07:59:56;;;;;;;1.52;1.42;;;;;;;;;;4935845;28;20036;-59
2022/10/06 08:02:25;;;;;;;1.98;1.55;;;;;;;;;;4933717;28;20073;-59
2022/10/06 08:04:50;;;;;;;3.58;1.80;;;;;;;;;;4934027;28;20435;-59
2022/10/06 08:07:16;;;;;;;3.22;1.80;;;;;;;;;;4935597;28;20027;-59
2022/10/06 08:09:41;;;;;;;1.83;1.73;;;;;;;;;;4937607;28;20043;-59
2022/10/06 08:12:31;;;;;;;6.28;1.98;;;;;;;;;;4924398;28;20595;-59
2022/10/06 08:14:52;;;;;;;1.50;1.40;;;;;;;;;;4922590;28;20031;-61
2022/10/06 08:17:17;;;;;;;5.65;1.77;;;;;;;;;;4934202;28;20089;-60
2022/10/06 08:19:42;;;;;;;2.67;1.83;;;;;;;;;;4931544;28;20056;-59
2022/10/06 08:22:09;;;;;;;2.88;2.03;;;;;;;;;;4931975;28;20047;-60
2022/10/06 08:24:34;;;;;;;3.53;2.22;;;;;;;;;;4934115;28;20020;-59
2022/10/06 08:26:59;;;;;;;3.05;2.10;;;;;;;;;;4937186;28;20035;-59
2022/10/06 08:29:25;;;;;;;2.10;1.92;;;;;;;;;;4936933;28;20047;-60
2022/10/06 08:31:50;;;;;;;2.10;2.00;;;;;;;;;;4936682;28;20039;-60
2022/10/06 08:34:15;;;;;;;1.80;1.70;;;;;;;;;;4937829;28;21156;-60
2022/10/06 08:36:42;;;;;;;2.58;2.38;;;;;;;;;;4931575;28;20027;-59
2022/10/06 08:39:07;;;;;;;2.03;1.75;;;;;;;;;;4930681;28;20036;-59
2022/10/06 08:41:33;;;;;;;2.10;2.00;;;;;;;;;;4936740;28;20398;-59
2022/10/06 08:44:03;;;;;;;4.90;1.67;;;;;;;;;;4935306;28;20435;-59
2022/10/06 08:46:33;;;;;;;3.20;2.00;;;;;;;;;;4931959;28;20035;-59
2022/10/06 08:48:58;;;;;;;2.15;2.05;;;;;;;;;;4914559;28;20034;-60
2022/10/06 08:52:02;;;;;;;4.18;1.75;;;;;;;;;;4934828;28;20079;-59
2022/10/06 08:54:30;;;;;;;3.58;2.05;;;;;;;;;;4898810;29;20032;-57
2022/10/06 08:57:02;;;;;;;4.07;2.03;;;;;;;;;;4898459;29;20036;-56
2022/10/06 08:59:27;;;;;;;3.85;2.00;;;;;;;;;;4901654;29;20068;-56
2022/10/06 09:01:53;;;;;;;1.80;1.70;;;;;;;;;;4901745;29;20156;-59
2022/10/06 09:04:22;;;;;;;2.30;2.13;;;;;;;;;;4898697;29;20044;-59
2022/10/06 09:06:59;;;;;;;3.92;1.92;;;;;;;;;;4898365;29;20051;-59
2022/10/06 09:09:27;;;;;;;4.53;2.25;;;;;;;;;;4896354;29;20040;-59
2022/10/06 09:12:06;;;;;;;2.95;2.13;;;;;;;;;;4898200;29;20127;-60
2022/10/06 09:14:36;;;;;;;3.67;2.50;;;;;;;;;;4896286;29;20028;-59
2022/10/06 09:17:03;;;;;;;2.38;2.10;;;;;;;;;;4896448;29;20024;-59
2022/10/06 09:19:34;;;;;;;2.72;2.17;;;;;;;;;;4897002;29;20154;-61
2022/10/06 09:22:01;;;;;;;1.75;1.65;;;;;;;;;;4896727;29;20466;-59
2022/10/06 09:24:26;;;;;;;4.00;1.88;;;;;;;;;;4904386;28;20036;-59
2022/10/06 09:26:52;;;;;;;4.80;2.30;;;;;;;;;;4936468;28;20090;-59
2022/10/06 09:29:17;;;;;;;3.80;2.00;;;;;;;;;;4932538;28;20474;-59
2022/10/06 09:31:49;;;;;;;2.22;2.08;;;;;;;;;;4931646;28;20031;-60
2022/10/06 09:34:14;;;;;;;2.55;2.35;;;;;;;;;;4918011;28;20034;-59
2022/10/06 09:37:02;;;;;;;2.85;2.08;;;;;;;;;;4932891;28;20933;-59
2022/10/06 09:39:31;;;;;;;5.65;2.25;;;;;;;;;;4928273;28;20055;-60
2022/10/06 09:41:58;;;;;;;2.03;1.92;;;;;;;;;;4936582;28;20086;-59
2022/10/06 09:44:26;;;;;;;2.10;1.90;;;;;;;;;;4935252;28;20027;-58
2022/10/06 09:46:52;;;;;;;2.60;2.10;;;;;;;;;;4936618;28;20034;-57
2022/10/06 09:49:18;;;;;;;2.47;2.30;;;;;;;;;;4934196;28;20028;-58
2022/10/06 09:52:02;;;;;;;6.70;2.78;;;;;;;;;;4932129;28;20031;-58
2022/10/06 09:54:29;;;;;;;2.90;2.60;;;;;;;;;;4931160;28;20038;-57
2022/10/06 09:56:57;;;;;;;6.90;3.22;;;;;;;;;;4930359;28;20039;-57
2022/10/06 09:59:28;;;;;;;2.70;1.92;;;;;;;;;;4932893;28;20043;-58
2022/10/06 10:01:54;;;;;;;2.47;2.28;;;;;;;;;;4933039;28;20051;-57
2022/10/06 10:04:25;;;;;;;4.30;1.90;;;;;;;;;;4933449;28;20486;-58
2022/10/06 10:06:51;;;;;;;3.08;2.22;;;;;;;;;;4933367;28;20039;-57
2022/10/06 10:09:18;;;;;;;3.30;2.15;;;;;;;;;;4934881;28;20031;-57
2022/10/06 10:14:34;;;;;;;3.22;1.80;;;;;;;;;;4934972;28;20525;-57
2022/10/06 10:17:05;;;;;;;2.42;2.30;;;;;;;;;;4934240;28;20043;-57
2022/10/06 10:19:35;;;;;;;4.93;2.28;;;;;;;;;;4928633;28;20067;-58
2022/10/06 10:22:01;;;;;;;4.05;1.80;;;;;;;;;;4936165;28;20043;-57
2022/10/06 10:24:49;;;;;;;2.85;2.45;;;;;;;;;;4932092;28;20031;-56
2022/10/06 10:27:23;;;;;;;2.67;2.30;;;;;;;;;;4930681;28;20086;-59
2022/10/06 10:29:50;;;;;;;2.70;1.92;;;;;;;;;;4931828;28;20131;-57
2022/10/06 10:32:23;;;;;;;2.80;1.80;;;;;;;;;;4934453;28;20046;-57
2022/10/06 10:34:58;;;;;;;3.25;2.38;;;;;;;;;;4931208;28;20027;-57
2022/10/06 10:37:52;;;;;;;3.25;2.10;;;;;;;;;;4931609;28;20028;-56
2022/10/06 10:40:34;;;;;;;8.80;2.63;;;;;;;;;;4917857;28;20080;-59
2022/10/06 10:42:59;;;;;;;5.55;2.20;;;;;;;;;;4940288;28;20031;-57
2022/10/06 10:45:35;;;;;;;6.25;2.78;;;;;;;;;;4932831;28;20059;-58
2022/10/06 10:48:05;;;;;;;8.52;2.33;;;;;;;;;;4941705;28;20038;-57
2022/10/06 10:50:41;;;;;;;4.47;2.17;;;;;;;;;;4933832;28;20051;-57
2022/10/06 10:53:13;;;;;;;5.00;2.10;;;;;;;;;;4919054;29;20480;-57
2022/10/06 10:55:43;;;;;;;3.63;2.28;;;;;;;;;;4922487;29;20465;-57
2022/10/06 10:58:30;;;;;;;3.08;2.35;;;;;;;;;;4921645;29;20118;-57
2022/10/06 11:01:01;;;;;;;5.28;2.35;;;;;;;;;;4919598;29;20039;-57
2022/10/06 11:03:26;;;;;;;2.88;2.30;;;;;;;;;;4918239;29;20032;-56
2022/10/06 11:06:11;;;;;;;2.88;2.53;;;;;;;;;;4920357;29;20692;-56
2022/10/06 11:08:53;;;;;;;2.33;1.90;;;;;;;;;;4922118;29;20479;-58
2022/10/06 11:11:35;;;;;;;2.55;2.35;;;;;;;;;;4918954;29;20035;-57
2022/10/06 11:14:02;;;;;;;2.92;2.50;;;;;;;;;;4920242;29;20024;-54
2022/10/06 11:16:44;;;;;;;2.58;2.13;;;;;;;;;;4921097;29;20032;-56
2022/10/06 11:19:15;;;;;;;5.82;3.00;;;;;;;;;;4919700;29;20123;-55
2022/10/06 11:21:41;;;;;;;2.45;2.20;;;;;;;;;;4923363;29;20047;-55
2022/10/06 11:24:13;;;;;;;2.92;2.70;;;;;;;;;;4922836;29;20167;-56
2022/10/06 11:26:38;;;;;;;3.30;2.35;;;;;;;;;;4922647;29;20028;-54
2022/10/06 11:29:13;;;;;;;4.15;2.63;;;;;;;;;;4919325;29;20114;-55
2022/10/06 11:31:41;;;;;;;2.28;1.95;;;;;;;;;;4918234;29;20039;-56
2022/10/06 11:34:08;;;;;;;2.67;2.20;;;;;;;;;;4917925;29;20494;-56
2022/10/06 11:36:41;;;;;;;6.40;2.30;;;;;;;;;;4922320;29;20895;-57
2022/10/06 11:39:09;;;;;;;2.35;2.15;;;;;;;;;;4919880;29;20138;-56
2022/10/06 11:41:38;;;;;;;3.42;2.20;;;;;;;;;;4918993;29;20024;-60
2022/10/06 11:44:14;;;;;;;2.70;2.50;;;;;;;;;;4918094;29;20023;-56
2022/10/06 11:46:42;;;;;;;3.33;2.17;;;;;;;;;;4921996;29;20051;-55
2022/10/06 11:49:31;;;;;;;4.15;2.10;;;;;;;;;;4922646;29;20043;-56
2022/10/06 11:52:22;;;;;;;4.13;2.67;;;;;;;;;;4938016;28;20114;-55
2022/10/06 11:54:48;;;;;;;7.20;2.92;;;;;;;;;;4887207;29;20044;-57
2022/10/06 11:57:22;;;;;;;7.70;3.03;;;;;;;;;;4887065;29;20056;-55
2022/10/06 11:59:49;;;;;;;4.88;2.53;;;;;;;;;;4887088;29;20071;-55
2022/10/06 12:02:33;;;;;;;2.75;2.17;;;;;;;;;;4888053;29;20068;-57
2022/10/06 12:05:13;;;;;;;6.47;2.90;;;;;;;;;;4887290;29;20072;-56
2022/10/06 12:07:50;;;;;;;4.35;2.40;;;;;;;;;;4888265;29;20563;-55
2022/10/06 12:10:27;;;;;;;3.53;2.40;;;;;;;;;;4886715;29;20068;-56
2022/10/06 12:13:13;;;;;;;5.03;2.55;;;;;;;;;;4886470;29;20047;-55
2022/10/06 12:16:00;;;;;;;4.32;2.55;;;;;;;;;;4886571;29;20092;-57
2022/10/06 12:18:28;;;;;;;5.50;2.35;;;;;;;;;;4887908;29;20063;-55
2022/10/06 12:21:05;;;;;;;4.18;1.95;;;;;;;;;;4886922;29;20059;-56
2022/10/06 12:23:48;;;;;;;6.45;3.22;;;;;;;;;;4886355;29;20113;-54
2022/10/06 12:26:14;;;;;;;4.05;2.28;;;;;;;;;;4884036;29;20036;-56
2022/10/06 12:28:48;;;;;;;14.57;2.17;;;;;;;;;;4884074;29;20070;-55
2022/10/06 12:31:52;;;;;;;6.07;2.10;;;;;;;;;;4899736;28;20043;-54
2022/10/06 12:34:36;;;;;;;6.90;2.50;;;;;;;;;;4899514;29;20545;-57
2022/10/06 12:37:29;;;;;;;3.20;2.40;;;;;;;;;;4899099;29;20032;-56
2022/10/06 12:40:13;;;;;;;4.85;2.67;;;;;;;;;;4899843;29;20163;-57
2022/10/06 12:42:38;;;;;;;9.30;2.30;;;;;;;;;;4900780;29;20024;-57
2022/10/06 12:45:12;;;;;;;4.75;1.75;;;;;;;;;;4901033;29;20039;-57
2022/10/06 12:47:40;;;;;;;2.88;2.08;;;;;;;;;;4903911;29;20050;-56
2022/10/06 12:50:18;;;;;;;2.53;2.33;;;;;;;;;;4903596;29;20087;-56
2022/10/06 12:52:51;;;;;;;3.63;2.42;;;;;;;;;;4901974;29;20048;-56
2022/10/06 12:55:35;;;;;;;6.82;3.00;;;;;;;;;;4900229;29;20039;-55
2022/10/06 12:58:00;;;;;;;3.22;2.13;;;;;;;;;;4900056;29;20060;-56
2022/10/06 13:00:41;;;;;;;6.53;2.47;;;;;;;;;;4901204;29;20132;-55
2022/10/06 13:03:14;;;;;;;5.25;2.33;;;;;;;;;;4903965;29;20070;-57
2022/10/06 13:05:39;;;;;;;2.47;2.28;;;;;;;;;;4914491;29;20036;-57
2022/10/06 13:08:06;;;;;;;3.90;2.25;;;;;;;;;;4913038;29;20386;-56
2022/10/06 13:10:31;;;;;;;5.18;2.28;;;;;;;;;;4913868;29;20035;-56
2022/10/06 13:12:57;;;;;;;5.65;2.83;;;;;;;;;;4916731;29;20023;-56
2022/10/06 13:15:26;;;;;;;4.95;2.72;;;;;;;;;;4917762;29;20044;-55
2022/10/06 13:17:56;;;;;;;7.78;3.10;;;;;;;;;;4913666;29;20032;-57
2022/10/06 13:20:25;;;;;;;6.25;2.08;;;;;;;;;;4913354;29;20080;-57
2022/10/06 13:22:54;;;;;;;6.68;3.17;;;;;;;;;;4919239;29;20452;-57
2022/10/06 13:25:19;;;;;;;10.30;3.42;;;;;;;;;;4915327;29;20051;-57
2022/10/06 13:27:49;;;;;;;5.15;2.33;;;;;;;;;;4913410;29;20170;-62
2022/10/06 13:30:20;;;;;;;2.53;1.85;;;;;;;;;;4915235;29;20115;-61
2022/10/06 13:32:46;;;;;;;6.05;2.45;;;;;;;;;;4913200;29;20062;-59
2022/10/06 13:35:12;;;;;;;2.75;2.22;;;;;;;;;;4914585;29;20032;-59
2022/10/06 13:37:38;;;;;;;6.05;3.03;;;;;;;;;;4917468;29;20036;-59
2022/10/06 13:40:13;;;;;;;7.60;2.55;;;;;;;;;;4914909;29;20020;-59
2022/10/06 13:42:38;;;;;;;2.55;2.35;;;;;;;;;;4913043;29;20164;-59
2022/10/06 13:45:05;;;;;;;2.30;2.13;;;;;;;;;;4913616;29;20032;-60
2022/10/06 13:47:32;;;;;;;4.82;2.33;;;;;;;;;;4913499;29;20035;-59
2022/10/06 13:50:04;;;;;;;4.63;2.63;;;;;;;;;;4923613;28;20569;-58
2022/10/06 13:52:30;;;;;;;4.57;2.80;;;;;;;;;;4935165;28;20031;-56
2022/10/06 13:54:56;;;;;;;5.00;2.47;;;;;;;;;;4934685;28;20444;-60
2022/10/06 13:57:39;;;;;;;5.70;2.45;;;;;;;;;;4934884;28;20031;-60
2022/10/06 14:00:13;;;;;;;7.43;2.05;;;;;;;;;;4936336;28;20039;-59
2022/10/06 14:02:39;;;;;;;2.45;2.05;;;;;;;;;;4935114;28;20037;-59
2022/10/06 14:05:23;;;;;;;9.60;2.53;;;;;;;;;;4929332;28;20035;-59
2022/10/06 14:07:49;;;;;;;3.50;2.40;;;;;;;;;;4932198;28;20495;-60
2022/10/06 14:10:18;;;;;;;4.80;2.88;;;;;;;;;;4932207;28;20263;-58
2022/10/06 14:12:44;;;;;;;5.15;2.38;;;;;;;;;;4934611;28;20027;-58
2022/10/06 14:15:20;;;;;;;3.30;2.40;;;;;;;;;;4934262;28;20448;-58
2022/10/06 14:17:51;;;;;;;4.03;2.35;;;;;;;;;;4932902;28;20027;-59
2022/10/06 14:20:46;;;;;;;7.30;2.40;;;;;;;;;;4932768;28;20553;-59
2022/10/06 14:23:30;;;;;;;2.38;1.90;;;;;;;;;;4920724;28;20037;-58
2022/10/06 14:25:55;;;;;;;2.97;2.38;;;;;;;;;;4932435;28;20032;-56
2022/10/06 14:28:20;;;;;;;5.10;2.50;;;;;;;;;;4933185;28;20050;-56
2022/10/06 14:30:46;;;;;;;6.32;2.50;;;;;;;;;;4933808;28;20533;-57
2022/10/06 14:33:11;;;;;;;4.80;2.55;;;;;;;;;;4930995;28;20054;-57
2022/10/06 14:35:36;;;;;;;4.43;2.20;;;;;;;;;;4934128;28;20583;-56
2022/10/06 14:38:02;;;;;;;3.05;2.10;;;;;;;;;;4934150;28;20086;-58
2022/10/06 14:40:27;;;;;;;2.50;2.20;;;;;;;;;;4935520;28;20234;-57
2022/10/06 14:42:52;;;;;;;2.78;2.08;;;;;;;;;;4935815;28;20027;-59
2022/10/06 14:45:18;;;;;;;10.27;2.88;;;;;;;;;;4935149;28;20027;-60
2022/10/06 14:47:44;;;;;;;6.38;2.40;;;;;;;;;;4934454;28;20027;-60
2022/10/06 14:50:09;;;;;;;5.80;2.83;;;;;;;;;;4935661;28;20066;-60
2022/10/06 14:52:36;;;;;;;12.15;2.75;;;;;;;;;;4934681;28;20035;-59
2022/10/06 14:55:01;;;;;;;5.07;2.42;;;;;;;;;;4932225;28;20039;-60
2022/10/06 14:57:27;;;;;;;3.80;2.03;;;;;;;;;;4934840;28;20039;-60
2022/10/06 14:59:52;;;;;;;5.57;2.28;;;;;;;;;;4931727;28;20055;-54
2022/10/06 15:02:19;;;;;;;6.47;1.90;;;;;;;;;;4920377;29;20035;-54
2022/10/06 15:04:44;;;;;;;3.58;2.30;;;;;;;;;;4932008;28;20135;-54
2022/10/06 15:09:54;;;;;;;2.53;1.90;;;;;;;;;;4930887;28;20093;-56
2022/10/06 15:12:19;;;;;;;4.57;1.95;;;;;;;;;;4931906;28;20391;-55
2022/10/06 15:14:44;;;;;;;4.57;2.45;;;;;;;;;;4930217;28;20067;-56